sensor_id;sensor_type;location;lat;lon;timestamp;temperature;humidity
21722;DHT22;11023;48.274;7.794;2023-02-15T00:20:11;1.50;99.90
21722;DHT22;11023;48.274;7.794;2023-02-15T00:23:32;1.50;99.90
21722;DHT22;11023;48.274;7.794;2023-02-15T00:32:35;1.30;99.90
21722;DHT22;11023;48.274;7.794;2023-02-15T00:45:25;1.20;99.90
21722;DHT22;11023;48.274;7.794;2023-02-15T00:48:16;1.10;99.90
21722;DHT22;11023;48.274;7.794;2023-02-15T00:51:20;1.00;99.90
21722;DHT22;11023;48.274;7.794;2023-02-15T00:54:06;1.00;99.90
21722;DHT22;11023;48.274;7.794;2023-02-15T01:06:54;1.00;99.90
21722;DHT22;11023;48.274;7.794;2023-02-15T01:09:42;1.10;99.90
21722;DHT22;11023;48.274;7.794;2023-02-15T01:12:31;1.00;99.90
21722;DHT22;11023;48.274;7.794;2023-02-15T01:15:23;1.00;99.90
21722;DHT22;11023;48.274;7.794;2023-02-15T01:18:31;1.00;99.90
21722;DHT22;11023;48.274;7.794;2023-02-15T01:45:36;1.30;99.90
21722;DHT22;11023;48.274;7.794;2023-02-15T01:51:36;1.30;99.90
21722;DHT22;11023;48.274;7.794;2023-02-15T01:57:48;1.20;99.90
21722;DHT22;11023;48.274;7.794;2023-02-15T02:00:32;1.20;99.90
21722;DHT22;11023;48.274;7.794;2023-02-15T02:09:45;1.10;99.90
21722;DHT22;11023;48.274;7.794;2023-02-15T02:12:33;1.10;99.90
21722;DHT22;11023;48.274;7.794;2023-02-15T02:22:49;1.20;99.90
21722;DHT22;11023;48.274;7.794;2023-02-15T03:02:31;1.00;99.90
21722;DHT22;11023;48.274;7.794;2023-02-15T03:05:15;1.00;99.90
21722;DHT22;11023;48.274;7.794;2023-02-15T03:08:12;0.80;99.90
21722;DHT22;11023;48.274;7.794;2023-02-15T03:11:16;0.80;99.90
21722;DHT22;11023;48.274;7.794;2023-02-15T03:14:25;0.70;99.90
21722;DHT22;11023;48.274;7.794;2023-02-15T03:26:37;0.70;99.90
21722;DHT22;11023;48.274;7.794;2023-02-15T03:34:52;0.60;99.90
21722;DHT22;11023;48.274;7.794;2023-02-15T03:41:06;0.70;99.90
21722;DHT22;11023;48.274;7.794;2023-02-15T03:50:45;0.70;99.90
21722;DHT22;11023;48.274;7.794;2023-02-15T03:53:57;0.70;99.90
21722;DHT22;11023;48.274;7.794;2023-02-15T04:06:19;0.90;99.90
21722;DHT22;11023;48.274;7.794;2023-02-15T04:08:45;0.90;99.90
21722;DHT22;11023;48.274;7.794;2023-02-15T04:11:29;0.90;99.90
21722;DHT22;11023;48.274;7.794;2023-02-15T04:13:55;0.90;99.90
21722;DHT22;11023;48.274;7.794;2023-02-15T04:16:25;0.80;99.90
21722;DHT22;11023;48.274;7.794;2023-02-15T04:18:50;0.90;99.90
21722;DHT22;11023;48.274;7.794;2023-02-15T04:21:35;0.90;99.90
21722;DHT22;11023;48.274;7.794;2023-02-15T04:24:20;0.90;99.90
21722;DHT22;11023;48.274;7.794;2023-02-15T04:27:04;0.90;99.90
21722;DHT22;11023;48.274;7.794;2023-02-15T04:29:31;0.90;99.90
21722;DHT22;11023;48.274;7.794;2023-02-15T04:31:59;0.90;99.90
21722;DHT22;11023;48.274;7.794;2023-02-15T04:34:26;0.80;99.90
21722;DHT22;11023;48.274;7.794;2023-02-15T04:36:52;0.70;99.90
21722;DHT22;11023;48.274;7.794;2023-02-15T04:39:18;0.70;99.90
21722;DHT22;11023;48.274;7.794;2023-02-15T04:41:44;0.70;99.90
21722;DHT22;11023;48.274;7.794;2023-02-15T04:44:10;0.80;99.90
21722;DHT22;11023;48.274;7.794;2023-02-15T04:46:36;0.70;99.90
21722;DHT22;11023;48.274;7.794;2023-02-15T04:49:02;0.70;99.90
21722;DHT22;11023;48.274;7.794;2023-02-15T04:51:28;0.70;99.90
21722;DHT22;11023;48.274;7.794;2023-02-15T04:53:53;0.70;99.90
21722;DHT22;11023;48.274;7.794;2023-02-15T04:56:20;0.60;99.90
21722;DHT22;11023;48.274;7.794;2023-02-15T04:58:46;0.50;99.90
21722;DHT22;11023;48.274;7.794;2023-02-15T05:01:12;0.50;99.90
21722;DHT22;11023;48.274;7.794;2023-02-15T05:03:37;0.40;99.90
21722;DHT22;11023;48.274;7.794;2023-02-15T05:06:04;0.50;99.90
21722;DHT22;11023;48.274;7.794;2023-02-15T05:08:30;0.40;99.90
21722;DHT22;11023;48.274;7.794;2023-02-15T05:10:56;0.40;99.90
21722;DHT22;11023;48.274;7.794;2023-02-15T05:13:22;0.40;99.90
21722;DHT22;11023;48.274;7.794;2023-02-15T05:15:52;0.40;99.90
21722;DHT22;11023;48.274;7.794;2023-02-15T05:18:19;0.40;99.90
21722;DHT22;11023;48.274;7.794;2023-02-15T05:20:45;0.40;99.90
21722;DHT22;11023;48.274;7.794;2023-02-15T05:23:11;0.30;99.90
21722;DHT22;11023;48.274;7.794;2023-02-15T05:25:37;0.30;99.90
21722;DHT22;11023;48.274;7.794;2023-02-15T05:28:22;0.30;99.90
21722;DHT22;11023;48.274;7.794;2023-02-15T05:30:50;0.30;99.90
21722;DHT22;11023;48.274;7.794;2023-02-15T05:33:16;0.30;99.90
21722;DHT22;11023;48.274;7.794;2023-02-15T05:35:42;0.30;99.90
21722;DHT22;11023;48.274;7.794;2023-02-15T05:38:08;0.20;99.90
21722;DHT22;11023;48.274;7.794;2023-02-15T05:40:34;0.20;99.90
21722;DHT22;11023;48.274;7.794;2023-02-15T05:43:00;0.20;99.90
21722;DHT22;11023;48.274;7.794;2023-02-15T05:45:25;0.20;99.90
21722;DHT22;11023;48.274;7.794;2023-02-15T05:47:51;0.20;99.90
21722;DHT22;11023;48.274;7.794;2023-02-15T05:50:17;0.10;99.90
21722;DHT22;11023;48.274;7.794;2023-02-15T05:52:43;0.20;99.90
21722;DHT22;11023;48.274;7.794;2023-02-15T05:55:08;0.20;99.90
21722;DHT22;11023;48.274;7.794;2023-02-15T05:57:34;0.10;99.90
21722;DHT22;11023;48.274;7.794;2023-02-15T06:00:01;0.10;99.90
21722;DHT22;11023;48.274;7.794;2023-02-15T06:02:29;0.00;99.90
21722;DHT22;11023;48.274;7.794;2023-02-15T06:04:55;0.00;99.90
21722;DHT22;11023;48.274;7.794;2023-02-15T06:07:21;0.10;99.90
21722;DHT22;11023;48.274;7.794;2023-02-15T06:09:46;0.10;99.90
21722;DHT22;11023;48.274;7.794;2023-02-15T06:12:12;0.10;99.90
21722;DHT22;11023;48.274;7.794;2023-02-15T06:14:37;0.10;99.90
21722;DHT22;11023;48.274;7.794;2023-02-15T06:17:03;0.20;99.90
21722;DHT22;11023;48.274;7.794;2023-02-15T06:19:29;0.20;99.90
21722;DHT22;11023;48.274;7.794;2023-02-15T06:21:54;0.30;99.90
21722;DHT22;11023;48.274;7.794;2023-02-15T06:24:20;0.30;99.90
21722;DHT22;11023;48.274;7.794;2023-02-15T06:26:45;0.30;99.90
21722;DHT22;11023;48.274;7.794;2023-02-15T06:29:11;0.20;99.90
21722;DHT22;11023;48.274;7.794;2023-02-15T06:31:37;0.30;99.90
21722;DHT22;11023;48.274;7.794;2023-02-15T06:34:02;0.30;99.90
21722;DHT22;11023;48.274;7.794;2023-02-15T06:36:29;0.40;99.90
21722;DHT22;11023;48.274;7.794;2023-02-15T06:38:55;0.40;99.90
21722;DHT22;11023;48.274;7.794;2023-02-15T06:41:21;0.40;99.90
21722;DHT22;11023;48.274;7.794;2023-02-15T06:43:46;0.40;99.90
21722;DHT22;11023;48.274;7.794;2023-02-15T06:46:12;0.40;99.90
21722;DHT22;11023;48.274;7.794;2023-02-15T06:48:38;0.40;99.90
21722;DHT22;11023;48.274;7.794;2023-02-15T06:51:03;0.40;99.90
21722;DHT22;11023;48.274;7.794;2023-02-15T06:53:29;0.40;99.90
21722;DHT22;11023;48.274;7.794;2023-02-15T06:56:06;0.40;99.90
21722;DHT22;11023;48.274;7.794;2023-02-15T06:58:34;0.40;99.90
21722;DHT22;11023;48.274;7.794;2023-02-15T07:01:00;0.40;99.90
21722;DHT22;11023;48.274;7.794;2023-02-15T07:03:26;0.50;99.90
21722;DHT22;11023;48.274;7.794;2023-02-15T07:05:56;0.50;99.90
21722;DHT22;11023;48.274;7.794;2023-02-15T07:08:23;0.60;99.90
21722;DHT22;11023;48.274;7.794;2023-02-15T07:10:50;0.50;99.90
21722;DHT22;11023;48.274;7.794;2023-02-15T07:13:15;0.60;99.90
21722;DHT22;11023;48.274;7.794;2023-02-15T07:15:42;0.60;99.90
21722;DHT22;11023;48.274;7.794;2023-02-15T07:18:09;0.60;99.90
21722;DHT22;11023;48.274;7.794;2023-02-15T07:20:36;0.60;99.90
21722;DHT22;11023;48.274;7.794;2023-02-15T07:23:03;0.60;99.90
21722;DHT22;11023;48.274;7.794;2023-02-15T07:25:30;0.50;99.90
21722;DHT22;11023;48.274;7.794;2023-02-15T07:28:00;0.50;99.90
21722;DHT22;11023;48.274;7.794;2023-02-15T07:30:27;0.40;99.90
21722;DHT22;11023;48.274;7.794;2023-02-15T07:33:02;0.40;99.90
21722;DHT22;11023;48.274;7.794;2023-02-15T07:35:50;0.50;99.90
21722;DHT22;11023;48.274;7.794;2023-02-15T07:38:16;0.60;99.90
21722;DHT22;11023;48.274;7.794;2023-02-15T07:40:42;0.60;99.90
21722;DHT22;11023;48.274;7.794;2023-02-15T07:43:08;0.60;99.90
21722;DHT22;11023;48.274;7.794;2023-02-15T07:45:33;0.60;99.90
21722;DHT22;11023;48.274;7.794;2023-02-15T07:48:01;0.70;99.90
21722;DHT22;11023;48.274;7.794;2023-02-15T07:50:27;0.80;99.90
21722;DHT22;11023;48.274;7.794;2023-02-15T07:52:53;0.70;99.90
21722;DHT22;11023;48.274;7.794;2023-02-15T07:55:18;0.80;99.90
21722;DHT22;11023;48.274;7.794;2023-02-15T07:57:45;0.80;99.90
21722;DHT22;11023;48.274;7.794;2023-02-15T08:00:13;0.80;99.90
21722;DHT22;11023;48.274;7.794;2023-02-15T08:02:39;0.80;99.90
21722;DHT22;11023;48.274;7.794;2023-02-15T08:05:06;0.80;99.90
21722;DHT22;11023;48.274;7.794;2023-02-15T08:07:32;0.70;99.90
21722;DHT22;11023;48.274;7.794;2023-02-15T08:09:57;0.70;99.90
21722;DHT22;11023;48.274;7.794;2023-02-15T08:12:26;0.70;99.90
21722;DHT22;11023;48.274;7.794;2023-02-15T08:14:52;0.70;99.90
21722;DHT22;11023;48.274;7.794;2023-02-15T08:17:17;0.70;99.90
21722;DHT22;11023;48.274;7.794;2023-02-15T08:19:43;0.70;99.90
21722;DHT22;11023;48.274;7.794;2023-02-15T08:22:13;0.60;99.90
21722;DHT22;11023;48.274;7.794;2023-02-15T08:24:40;0.60;99.90
21722;DHT22;11023;48.274;7.794;2023-02-15T08:27:08;0.60;99.90
21722;DHT22;11023;48.274;7.794;2023-02-15T08:29:35;0.70;99.90
21722;DHT22;11023;48.274;7.794;2023-02-15T08:32:07;0.70;99.90
21722;DHT22;11023;48.274;7.794;2023-02-15T08:34:38;0.70;99.90
21722;DHT22;11023;48.274;7.794;2023-02-15T08:37:04;0.80;99.90
21722;DHT22;11023;48.274;7.794;2023-02-15T08:39:31;0.80;99.90
21722;DHT22;11023;48.274;7.794;2023-02-15T08:41:57;0.80;99.90
21722;DHT22;11023;48.274;7.794;2023-02-15T08:44:22;0.90;99.90
21722;DHT22;11023;48.274;7.794;2023-02-15T08:46:49;0.90;99.90
21722;DHT22;11023;48.274;7.794;2023-02-15T08:49:19;1.00;99.90
21722;DHT22;11023;48.274;7.794;2023-02-15T08:51:46;1.10;99.90
21722;DHT22;11023;48.274;7.794;2023-02-15T08:54:14;1.10;99.90
21722;DHT22;11023;48.274;7.794;2023-02-15T08:56:42;1.10;99.90
21722;DHT22;11023;48.274;7.794;2023-02-15T08:59:14;1.20;99.90
21722;DHT22;11023;48.274;7.794;2023-02-15T09:01:40;1.20;99.90
21722;DHT22;11023;48.274;7.794;2023-02-15T09:04:07;1.30;99.90
21722;DHT22;11023;48.274;7.794;2023-02-15T09:06:38;1.30;99.90
21722;DHT22;11023;48.274;7.794;2023-02-15T09:09:06;1.30;99.90
21722;DHT22;11023;48.274;7.794;2023-02-15T09:11:38;1.30;99.90
21722;DHT22;11023;48.274;7.794;2023-02-15T09:14:07;1.30;99.90
21722;DHT22;11023;48.274;7.794;2023-02-15T09:16:36;1.20;99.90
21722;DHT22;11023;48.274;7.794;2023-02-15T09:19:03;1.20;99.90
21722;DHT22;11023;48.274;7.794;2023-02-15T09:21:34;1.20;99.90
21722;DHT22;11023;48.274;7.794;2023-02-15T09:24:03;1.20;99.90
21722;DHT22;11023;48.274;7.794;2023-02-15T09:26:31;1.40;99.90
21722;DHT22;11023;48.274;7.794;2023-02-15T09:28:59;1.40;99.90
21722;DHT22;11023;48.274;7.794;2023-02-15T09:31:29;1.40;99.90
21722;DHT22;11023;48.274;7.794;2023-02-15T09:33:55;1.50;99.90
21722;DHT22;11023;48.274;7.794;2023-02-15T09:36:26;1.50;99.90
21722;DHT22;11023;48.274;7.794;2023-02-15T09:38:58;1.50;99.90
21722;DHT22;11023;48.274;7.794;2023-02-15T09:49:23;1.70;99.90
21722;DHT22;11023;48.274;7.794;2023-02-15T09:54:28;1.80;99.90
21722;DHT22;11023;48.274;7.794;2023-02-15T09:57:08;1.80;99.90
21722;DHT22;11023;48.274;7.794;2023-02-15T10:08:23;1.90;99.90
21722;DHT22;11023;48.274;7.794;2023-02-15T10:11:11;1.90;99.90
21722;DHT22;11023;48.274;7.794;2023-02-15T10:16:56;2.20;99.90
21722;DHT22;11023;48.274;7.794;2023-02-15T10:22:16;2.40;99.90
21722;DHT22;11023;48.274;7.794;2023-02-15T10:27:18;2.60;99.90
21722;DHT22;11023;48.274;7.794;2023-02-15T10:30:10;2.70;99.90
21722;DHT22;11023;48.274;7.794;2023-02-15T10:32:46;2.70;99.90
21722;DHT22;11023;48.274;7.794;2023-02-15T10:35:20;2.70;99.90
21722;DHT22;11023;48.274;7.794;2023-02-15T10:43:14;3.00;99.90
21722;DHT22;11023;48.274;7.794;2023-02-15T10:57:12;3.30;99.90
21722;DHT22;11023;48.274;7.794;2023-02-15T11:08:03;3.00;99.90
21722;DHT22;11023;48.274;7.794;2023-02-15T11:10:39;3.10;99.90
21722;DHT22;11023;48.274;7.794;2023-02-15T11:13:16;3.10;99.90
21722;DHT22;11023;48.274;7.794;2023-02-15T11:15:55;3.30;99.90
21722;DHT22;11023;48.274;7.794;2023-02-15T11:18:32;3.40;99.90
21722;DHT22;11023;48.274;7.794;2023-02-15T11:23:25;3.60;99.90
21722;DHT22;11023;48.274;7.794;2023-02-15T11:25:58;3.50;99.90
21722;DHT22;11023;48.274;7.794;2023-02-15T11:28:36;3.60;99.90
21722;DHT22;11023;48.274;7.794;2023-02-15T11:31:25;3.60;99.90
21722;DHT22;11023;48.274;7.794;2023-02-15T11:33:55;3.60;99.90
21722;DHT22;11023;48.274;7.794;2023-02-15T11:36:43;3.50;99.90
21722;DHT22;11023;48.274;7.794;2023-02-15T11:39:16;3.40;99.90
21722;DHT22;11023;48.274;7.794;2023-02-15T11:41:53;3.50;99.90
21722;DHT22;11023;48.274;7.794;2023-02-15T11:46:52;3.30;99.90
21722;DHT22;11023;48.274;7.794;2023-02-15T11:49:44;3.40;99.90
21722;DHT22;11023;48.274;7.794;2023-02-15T11:52:13;3.30;99.90
21722;DHT22;11023;48.274;7.794;2023-02-15T11:54:42;3.40;99.90
21722;DHT22;11023;48.274;7.794;2023-02-15T11:57:30;3.50;99.90
21722;DHT22;11023;48.274;7.794;2023-02-15T12:00:23;3.60;99.90
21722;DHT22;11023;48.274;7.794;2023-02-15T12:02:52;3.90;99.90
21722;DHT22;11023;48.274;7.794;2023-02-15T12:05:22;4.00;99.90
21722;DHT22;11023;48.274;7.794;2023-02-15T12:08:00;4.10;99.90
21722;DHT22;11023;48.274;7.794;2023-02-15T12:10:34;4.20;99.90
21722;DHT22;11023;48.274;7.794;2023-02-15T12:13:13;4.30;99.90
21722;DHT22;11023;48.274;7.794;2023-02-15T12:15:42;4.40;99.90
21722;DHT22;11023;48.274;7.794;2023-02-15T12:20:48;4.60;99.90
21722;DHT22;11023;48.274;7.794;2023-02-15T12:23:15;4.60;99.90
21722;DHT22;11023;48.274;7.794;2023-02-15T12:25:43;4.60;99.90
21722;DHT22;11023;48.274;7.794;2023-02-15T12:28:36;4.30;99.90
21722;DHT22;11023;48.274;7.794;2023-02-15T12:31:09;4.10;99.90
21722;DHT22;11023;48.274;7.794;2023-02-15T12:33:43;4.00;99.90
21722;DHT22;11023;48.274;7.794;2023-02-15T12:36:42;3.90;99.90
21722;DHT22;11023;48.274;7.794;2023-02-15T12:42:13;4.00;99.90
21722;DHT22;11023;48.274;7.794;2023-02-15T12:44:34;4.10;99.90
21722;DHT22;11023;48.274;7.794;2023-02-15T12:49:42;4.10;99.90
21722;DHT22;11023;48.274;7.794;2023-02-15T12:54:44;4.10;99.90
21722;DHT22;11023;48.274;7.794;2023-02-15T12:59:50;4.30;99.90
21722;DHT22;11023;48.274;7.794;2023-02-15T13:02:25;4.40;99.90
21722;DHT22;11023;48.274;7.794;2023-02-15T13:04:51;4.50;99.90
21722;DHT22;11023;48.274;7.794;2023-02-15T13:07:18;4.60;99.90
21722;DHT22;11023;48.274;7.794;2023-02-15T13:09:44;4.50;99.90
21722;DHT22;11023;48.274;7.794;2023-02-15T13:12:27;4.40;99.90
21722;DHT22;11023;48.274;7.794;2023-02-15T13:14:56;4.60;99.90
21722;DHT22;11023;48.274;7.794;2023-02-15T13:17:32;4.60;99.90
21722;DHT22;11023;48.274;7.794;2023-02-15T13:20:16;4.70;99.90
21722;DHT22;11023;48.274;7.794;2023-02-15T13:22:45;4.80;99.90
21722;DHT22;11023;48.274;7.794;2023-02-15T13:25:19;4.90;99.90
21722;DHT22;11023;48.274;7.794;2023-02-15T13:27:47;4.90;99.90
21722;DHT22;11023;48.274;7.794;2023-02-15T13:30:35;4.70;99.90
21722;DHT22;11023;48.274;7.794;2023-02-15T13:33:05;4.60;99.90
21722;DHT22;11023;48.274;7.794;2023-02-15T13:38:43;4.40;99.90
21722;DHT22;11023;48.274;7.794;2023-02-15T13:41:25;4.40;99.90
21722;DHT22;11023;48.274;7.794;2023-02-15T13:49:39;4.20;99.90
21722;DHT22;11023;48.274;7.794;2023-02-15T13:52:21;4.40;99.90
21722;DHT22;11023;48.274;7.794;2023-02-15T14:00:56;4.40;99.90
21722;DHT22;11023;48.274;7.794;2023-02-15T14:27:18;4.00;99.90
21722;DHT22;11023;48.274;7.794;2023-02-15T14:29:57;4.10;99.90
21722;DHT22;11023;48.274;7.794;2023-02-15T14:32:35;4.00;99.90
21722;DHT22;11023;48.274;7.794;2023-02-15T14:35:04;4.10;99.90
21722;DHT22;11023;48.274;7.794;2023-02-15T14:38:04;4.10;99.90
21722;DHT22;11023;48.274;7.794;2023-02-15T14:40:56;4.10;99.90
21722;DHT22;11023;48.274;7.794;2023-02-15T14:46:41;4.10;99.90
21722;DHT22;11023;48.274;7.794;2023-02-15T14:59:57;4.20;99.90
21722;DHT22;11023;48.274;7.794;2023-02-15T15:02:49;4.20;99.90
21722;DHT22;11023;48.274;7.794;2023-02-15T15:07:53;4.10;99.90
21722;DHT22;11023;48.274;7.794;2023-02-15T15:12:56;4.00;99.90
21722;DHT22;11023;48.274;7.794;2023-02-15T15:18:03;3.70;99.90
21722;DHT22;11023;48.274;7.794;2023-02-15T15:25:49;3.70;99.90
21722;DHT22;11023;48.274;7.794;2023-02-15T15:34:19;3.40;99.90
21722;DHT22;11023;48.274;7.794;2023-02-15T15:41:03;3.50;99.90
21722;DHT22;11023;48.274;7.794;2023-02-15T15:46:06;3.50;99.90
21722;DHT22;11023;48.274;7.794;2023-02-15T15:48:37;3.40;99.90
21722;DHT22;11023;48.274;7.794;2023-02-15T15:53:44;3.30;99.90
21722;DHT22;11023;48.274;7.794;2023-02-15T15:56:21;3.40;99.90
21722;DHT22;11023;48.274;7.794;2023-02-15T15:59:00;3.40;99.90
21722;DHT22;11023;48.274;7.794;2023-02-15T16:01:29;3.30;99.90
21722;DHT22;11023;48.274;7.794;2023-02-15T16:03:57;3.30;99.90
21722;DHT22;11023;48.274;7.794;2023-02-15T16:06:32;3.30;99.90
21722;DHT22;11023;48.274;7.794;2023-02-15T16:09:09;3.30;99.90
21722;DHT22;11023;48.274;7.794;2023-02-15T16:11:35;3.20;99.90
21722;DHT22;11023;48.274;7.794;2023-02-15T16:14:12;3.20;99.90
21722;DHT22;11023;48.274;7.794;2023-02-15T16:16:38;3.20;99.90
21722;DHT22;11023;48.274;7.794;2023-02-15T16:19:04;3.20;99.90
21722;DHT22;11023;48.274;7.794;2023-02-15T16:21:35;3.10;99.90
21722;DHT22;11023;48.274;7.794;2023-02-15T16:26:40;3.00;99.90
21722;DHT22;11023;48.274;7.794;2023-02-15T16:29:17;2.90;99.90
21722;DHT22;11023;48.274;7.794;2023-02-15T16:31:55;2.90;99.90
21722;DHT22;11023;48.274;7.794;2023-02-15T16:34:21;2.90;99.90
21722;DHT22;11023;48.274;7.794;2023-02-15T16:36:47;2.90;99.90
21722;DHT22;11023;48.274;7.794;2023-02-15T16:39:20;2.90;99.90
21722;DHT22;11023;48.274;7.794;2023-02-15T16:41:47;2.90;99.90
21722;DHT22;11023;48.274;7.794;2023-02-15T16:44:18;2.90;99.90
21722;DHT22;11023;48.274;7.794;2023-02-15T16:46:48;2.80;99.90
21722;DHT22;11023;48.274;7.794;2023-02-15T16:49:20;2.80;99.90
21722;DHT22;11023;48.274;7.794;2023-02-15T16:51:58;2.70;99.90
21722;DHT22;11023;48.274;7.794;2023-02-15T16:54:25;2.70;99.90
21722;DHT22;11023;48.274;7.794;2023-02-15T16:56:52;2.70;99.90
21722;DHT22;11023;48.274;7.794;2023-02-15T16:59:41;2.80;99.90
21722;DHT22;11023;48.274;7.794;2023-02-15T17:02:19;2.80;99.90
21722;DHT22;11023;48.274;7.794;2023-02-15T17:05:01;2.80;99.90
21722;DHT22;11023;48.274;7.794;2023-02-15T17:07:27;2.80;99.90
21722;DHT22;11023;48.274;7.794;2023-02-15T17:09:55;2.80;99.90
21722;DHT22;11023;48.274;7.794;2023-02-15T17:20:33;2.90;99.90
21722;DHT22;11023;48.274;7.794;2023-02-15T17:22:59;2.90;99.90
21722;DHT22;11023;48.274;7.794;2023-02-15T17:25:33;2.90;99.90
21722;DHT22;11023;48.274;7.794;2023-02-15T17:28:00;2.90;99.90
21722;DHT22;11023;48.274;7.794;2023-02-15T17:30:30;2.80;99.90
21722;DHT22;11023;48.274;7.794;2023-02-15T17:33:03;2.90;99.90
21722;DHT22;11023;48.274;7.794;2023-02-15T17:35:31;2.90;99.90
21722;DHT22;11023;48.274;7.794;2023-02-15T17:38:18;2.80;99.90
21722;DHT22;11023;48.274;7.794;2023-02-15T17:40:45;2.90;99.90
21722;DHT22;11023;48.274;7.794;2023-02-15T17:43:10;2.80;99.90
21722;DHT22;11023;48.274;7.794;2023-02-15T17:45:42;2.90;99.90
21722;DHT22;11023;48.274;7.794;2023-02-15T17:50:46;2.80;99.90
21722;DHT22;11023;48.274;7.794;2023-02-15T17:53:13;2.90;99.90
21722;DHT22;11023;48.274;7.794;2023-02-15T17:55:41;2.90;99.90
21722;DHT22;11023;48.274;7.794;2023-02-15T17:58:14;2.90;99.90
21722;DHT22;11023;48.274;7.794;2023-02-15T18:00:43;2.90;99.90
21722;DHT22;11023;48.274;7.794;2023-02-15T18:03:38;2.80;99.90
21722;DHT22;11023;48.274;7.794;2023-02-15T18:06:23;2.80;99.90
21722;DHT22;11023;48.274;7.794;2023-02-15T18:09:14;2.80;99.90
21722;DHT22;11023;48.274;7.794;2023-02-15T18:11:59;2.80;99.90
21722;DHT22;11023;48.274;7.794;2023-02-15T18:14:25;2.80;99.90
21722;DHT22;11023;48.274;7.794;2023-02-15T18:16:51;2.80;99.90
21722;DHT22;11023;48.274;7.794;2023-02-15T18:19:22;2.70;99.90
21722;DHT22;11023;48.274;7.794;2023-02-15T18:21:50;2.60;99.90
21722;DHT22;11023;48.274;7.794;2023-02-15T18:24:21;2.60;99.90
21722;DHT22;11023;48.274;7.794;2023-02-15T18:26:49;2.60;99.90
21722;DHT22;11023;48.274;7.794;2023-02-15T18:29:15;2.70;99.90
21722;DHT22;11023;48.274;7.794;2023-02-15T18:31:41;2.70;99.90
21722;DHT22;11023;48.274;7.794;2023-02-15T18:34:40;2.70;99.90
21722;DHT22;11023;48.274;7.794;2023-02-15T18:37:09;2.70;99.90
21722;DHT22;11023;48.274;7.794;2023-02-15T18:39:37;2.70;99.90
21722;DHT22;11023;48.274;7.794;2023-02-15T18:42:05;2.60;99.90
21722;DHT22;11023;48.274;7.794;2023-02-15T18:44:31;2.60;99.90
21722;DHT22;11023;48.274;7.794;2023-02-15T18:46:57;2.60;99.90
21722;DHT22;11023;48.274;7.794;2023-02-15T18:49:23;2.40;99.90
21722;DHT22;11023;48.274;7.794;2023-02-15T18:51:48;2.40;99.90
21722;DHT22;11023;48.274;7.794;2023-02-15T18:54:22;2.30;99.90
21722;DHT22;11023;48.274;7.794;2023-02-15T18:56:56;2.30;99.90
21722;DHT22;11023;48.274;7.794;2023-02-15T18:59:23;2.20;99.90
21722;DHT22;11023;48.274;7.794;2023-02-15T19:01:50;2.20;99.90
21722;DHT22;11023;48.274;7.794;2023-02-15T19:04:16;2.20;99.90
21722;DHT22;11023;48.274;7.794;2023-02-15T19:06:47;2.20;99.90
21722;DHT22;11023;48.274;7.794;2023-02-15T19:09:23;2.10;99.90
21722;DHT22;11023;48.274;7.794;2023-02-15T19:11:51;2.10;99.90
21722;DHT22;11023;48.274;7.794;2023-02-15T19:14:35;2.00;99.90
21722;DHT22;11023;48.274;7.794;2023-02-15T19:17:01;1.90;99.90
21722;DHT22;11023;48.274;7.794;2023-02-15T19:19:26;1.90;99.90
21722;DHT22;11023;48.274;7.794;2023-02-15T19:21:52;1.90;99.90
21722;DHT22;11023;48.274;7.794;2023-02-15T19:24:39;2.00;99.90
21722;DHT22;11023;48.274;7.794;2023-02-15T19:27:19;2.00;99.90
21722;DHT22;11023;48.274;7.794;2023-02-15T19:29:46;1.90;99.90
21722;DHT22;11023;48.274;7.794;2023-02-15T19:32:11;1.80;99.90
21722;DHT22;11023;48.274;7.794;2023-02-15T19:34:37;1.70;99.90
21722;DHT22;11023;48.274;7.794;2023-02-15T19:37:05;1.70;99.90
21722;DHT22;11023;48.274;7.794;2023-02-15T19:39:37;1.70;99.90
21722;DHT22;11023;48.274;7.794;2023-02-15T19:42:03;1.70;99.90
21722;DHT22;11023;48.274;7.794;2023-02-15T19:44:29;1.70;99.90
21722;DHT22;11023;48.274;7.794;2023-02-15T19:46:55;1.70;99.90
21722;DHT22;11023;48.274;7.794;2023-02-15T19:49:21;1.60;99.90
21722;DHT22;11023;48.274;7.794;2023-02-15T19:51:46;1.60;99.90
21722;DHT22;11023;48.274;7.794;2023-02-15T19:54:19;1.60;99.90
21722;DHT22;11023;48.274;7.794;2023-02-15T19:56:49;1.60;99.90
21722;DHT22;11023;48.274;7.794;2023-02-15T19:59:27;1.60;99.90
21722;DHT22;11023;48.274;7.794;2023-02-15T20:01:53;1.50;99.90
21722;DHT22;11023;48.274;7.794;2023-02-15T20:04:19;1.40;99.90
21722;DHT22;11023;48.274;7.794;2023-02-15T20:06:46;1.40;99.90
21722;DHT22;11023;48.274;7.794;2023-02-15T20:09:24;1.40;99.90
21722;DHT22;11023;48.274;7.794;2023-02-15T20:11:54;1.50;99.90
21722;DHT22;11023;48.274;7.794;2023-02-15T20:14:21;1.50;99.90
21722;DHT22;11023;48.274;7.794;2023-02-15T20:16:46;1.50;99.90
21722;DHT22;11023;48.274;7.794;2023-02-15T20:19:12;1.50;99.90
21722;DHT22;11023;48.274;7.794;2023-02-15T20:21:39;1.50;99.90
21722;DHT22;11023;48.274;7.794;2023-02-15T20:24:06;1.50;99.90
21722;DHT22;11023;48.274;7.794;2023-02-15T20:26:35;1.50;99.90
21722;DHT22;11023;48.274;7.794;2023-02-15T20:29:02;1.50;99.90
21722;DHT22;11023;48.274;7.794;2023-02-15T20:31:28;1.50;99.90
21722;DHT22;11023;48.274;7.794;2023-02-15T20:33:54;1.50;99.90
21722;DHT22;11023;48.274;7.794;2023-02-15T20:36:20;1.50;99.90
21722;DHT22;11023;48.274;7.794;2023-02-15T20:38:47;1.50;99.90
21722;DHT22;11023;48.274;7.794;2023-02-15T20:41:18;1.50;99.90
21722;DHT22;11023;48.274;7.794;2023-02-15T20:44:26;1.40;99.90
21722;DHT22;11023;48.274;7.794;2023-02-15T20:46:54;1.40;99.90
21722;DHT22;11023;48.274;7.794;2023-02-15T20:49:22;1.40;99.90
21722;DHT22;11023;48.274;7.794;2023-02-15T20:51:48;1.50;99.90
21722;DHT22;11023;48.274;7.794;2023-02-15T20:54:25;1.40;99.90
21722;DHT22;11023;48.274;7.794;2023-02-15T20:56:53;1.40;99.90
21722;DHT22;11023;48.274;7.794;2023-02-15T20:59:25;1.40;99.90
21722;DHT22;11023;48.274;7.794;2023-02-15T21:01:57;1.40;99.90
21722;DHT22;11023;48.274;7.794;2023-02-15T21:04:29;1.40;99.90
21722;DHT22;11023;48.274;7.794;2023-02-15T21:06:55;1.40;99.90
21722;DHT22;11023;48.274;7.794;2023-02-15T21:09:21;1.30;99.90
21722;DHT22;11023;48.274;7.794;2023-02-15T21:11:49;1.30;99.90
21722;DHT22;11023;48.274;7.794;2023-02-15T21:14:17;1.20;99.90
21722;DHT22;11023;48.274;7.794;2023-02-15T21:16:44;1.20;99.90
21722;DHT22;11023;48.274;7.794;2023-02-15T21:19:15;1.20;99.90
21722;DHT22;11023;48.274;7.794;2023-02-15T21:21:42;1.10;99.90
21722;DHT22;11023;48.274;7.794;2023-02-15T21:24:16;1.10;99.90
21722;DHT22;11023;48.274;7.794;2023-02-15T21:26:45;1.10;99.90
21722;DHT22;11023;48.274;7.794;2023-02-15T21:29:19;1.00;99.90
21722;DHT22;11023;48.274;7.794;2023-02-15T21:31:45;1.00;99.90
21722;DHT22;11023;48.274;7.794;2023-02-15T21:34:11;0.90;99.90
21722;DHT22;11023;48.274;7.794;2023-02-15T21:36:39;0.90;99.90
21722;DHT22;11023;48.274;7.794;2023-02-15T21:39:05;0.90;99.90
21722;DHT22;11023;48.274;7.794;2023-02-15T21:41:31;0.90;99.90
21722;DHT22;11023;48.274;7.794;2023-02-15T21:44:21;0.80;99.90